Time;durP1;ratioP1;P1;durP2;ratioP2;P2;SDS_P1;SDS_P2;PMS_P1;PMS_P2;Temp;Humidity;BMP_temperature;BMP_pressure;BME280_temperature;BME280_humidity;BME280_pressure;Samples;Min_cycle;Max_cycle;Signal;HPM_P1;HPM_P2
2022/11/05 00:10:02;;;;;;;11.47;6.23;;;;;;;-145.69;100.00;52563.22;5137397;27;20262;-79
2022/11/05 00:17:56;;;;;;;11.47;5.57;;;;;;;-145.69;100.00;52569.16;5158524;27;20203;-79
2022/11/05 00:20:24;;;;;;;12.60;6.97;;;;;;;-145.69;100.00;52569.16;5157075;27;20454;-79
2022/11/05 00:25:42;;;;;;;17.73;7.20;;;;;;;-145.69;100.00;52581.03;5157409;27;20198;-79
2022/11/05 00:28:09;;;;;;;12.33;6.00;;;;;;;-145.69;100.00;52569.16;5157429;27;20553;-78
2022/11/05 00:30:35;;;;;;;10.03;5.50;;;;;;;-145.69;100.00;52507.75;5157567;27;20200;-79
2022/11/05 00:33:02;;;;;;;14.30;6.30;;;;;;;-145.69;100.00;52543.41;5157431;27;20283;-78
2022/11/05 00:35:30;;;;;;;9.97;5.70;;;;;;;-145.69;100.00;52541.44;5157438;27;20200;-79
2022/11/05 00:37:56;;;;;;;11.13;6.13;;;;;;;-145.69;100.00;52535.47;5157617;27;20385;-79
2022/11/05 00:40:23;;;;;;;8.77;5.93;;;;;;;-145.69;100.00;52537.47;5151371;27;20196;-79
2022/11/05 00:45:33;;;;;;;10.17;5.93;;;;;;;-145.69;100.00;52543.41;5136804;27;20562;-79
2022/11/05 00:50:46;;;;;;;9.80;6.10;;;;;;;-145.69;100.00;52535.47;5136686;27;20258;-79
2022/11/05 00:53:12;;;;;;;12.40;6.63;;;;;;;-145.69;100.00;52525.59;5136200;27;20211;-79
2022/11/05 00:55:41;;;;;;;13.17;5.93;;;;;;;-145.69;100.00;52547.38;5136004;27;20215;-79
2022/11/05 00:58:10;;;;;;;11.13;6.77;;;;;;;-145.69;100.00;52567.16;5136630;27;20200;-79
2022/11/05 01:00:39;;;;;;;20.67;6.90;;;;;;;-145.69;100.00;52571.13;5136403;27;20207;-79
2022/11/05 01:03:08;;;;;;;15.07;6.77;;;;;;;-145.69;100.00;52555.28;5136190;27;20201;-79
2022/11/05 01:05:39;;;;;;;13.00;7.23;;;;;;;-145.69;100.00;52555.28;5135966;27;20685;-79
2022/11/05 01:08:08;;;;;;;12.57;6.87;;;;;;;-145.69;100.00;52565.19;5137625;27;20192;-79
2022/11/05 01:10:35;;;;;;;12.07;6.83;;;;;;;-145.69;100.00;52571.13;5137180;27;20567;-79
2022/11/05 01:13:01;;;;;;;15.50;7.33;;;;;;;-145.69;100.00;52577.06;5140795;27;20679;-79
2022/11/05 01:15:28;;;;;;;13.93;7.27;;;;;;;-145.69;100.00;52543.41;5157019;27;20204;-79
2022/11/05 01:17:54;;;;;;;11.47;6.63;;;;;;;-145.69;100.00;52545.38;5144397;27;20215;-79
2022/11/05 01:20:21;;;;;;;12.67;7.50;;;;;;;-145.69;100.00;52531.53;5135984;27;20200;-79
2022/11/05 01:22:47;;;;;;;16.60;7.10;;;;;;;-145.69;100.00;52551.31;5135905;27;20193;-79
2022/11/05 01:25:15;;;;;;;12.03;7.00;;;;;;;-145.69;100.00;52527.56;5135264;27;20207;-79
2022/11/05 01:27:42;;;;;;;13.17;6.83;;;;;;;-145.69;100.00;52569.16;5135778;27;20313;-80
2022/11/05 01:30:10;;;;;;;11.77;6.53;;;;;;;-145.69;100.00;52585.00;5135640;27;20225;-80
2022/11/05 01:32:37;;;;;;;10.70;6.50;;;;;;;-145.69;100.00;52543.41;5135592;27;20204;-78
2022/11/05 01:35:04;;;;;;;14.13;6.83;;;;;;;-145.69;100.00;52555.28;5135313;27;20237;-79
2022/11/05 01:37:31;;;;;;;9.70;6.00;;;;;;;-145.69;100.00;52579.06;5135916;27;20297;-79
2022/11/05 01:39:57;;;;;;;11.37;5.20;;;;;;;-145.69;100.00;52569.16;5135860;27;20575;-79
2022/11/05 01:42:27;;;;;;;10.90;5.73;;;;;;;-145.69;100.00;52563.22;5135115;27;20655;-80
2022/11/05 01:45:02;;;;;;;9.37;5.40;;;;;;;-145.69;100.00;52563.22;5135647;27;20188;-79
2022/11/05 01:47:36;;;;;;;9.33;5.57;;;;;;;-145.69;100.00;52579.06;5135353;27;20196;-79
2022/11/05 01:50:07;;;;;;;8.20;5.20;;;;;;;-145.69;100.00;52539.44;5135473;27;20224;-78
2022/11/05 01:52:35;;;;;;;9.13;5.03;;;;;;;-145.69;100.00;52543.41;5135572;27;20242;-79
2022/11/05 01:55:03;;;;;;;9.03;4.80;;;;;;;-145.69;100.00;52569.16;5135294;27;20700;-79
2022/11/05 01:57:32;;;;;;;13.50;5.40;;;;;;;-145.69;100.00;52571.13;5135194;27;20207;-80
2022/11/05 02:00:00;;;;;;;9.40;4.70;;;;;;;-145.69;100.00;52553.31;5135100;27;20201;-80
2022/11/05 02:02:27;;;;;;;7.97;4.70;;;;;;;-145.69;100.00;52588.97;5135448;27;20192;-80
2022/11/05 02:05:00;;;;;;;8.80;4.33;;;;;;;-145.69;100.00;52555.28;5135005;27;20557;-80
2022/11/05 02:07:29;;;;;;;8.10;4.60;;;;;;;-145.69;100.00;52547.38;5135132;27;20208;-80
2022/11/05 02:10:01;;;;;;;9.53;5.13;;;;;;;-145.69;100.00;52559.25;5114379;28;20576;-80
2022/11/05 02:12:28;;;;;;;6.70;4.20;;;;;;;-145.69;100.00;52559.25;5114417;28;20201;-80
2022/11/05 02:14:57;;;;;;;8.33;4.13;;;;;;;-145.69;100.00;52543.41;5114229;28;20261;-80
2022/11/05 02:17:34;;;;;;;6.73;4.00;;;;;;;-145.69;100.00;52527.56;5114194;28;20206;-79
2022/11/05 02:20:42;;;;;;;7.87;4.53;;;;;;;-145.69;100.00;52573.13;5130837;27;20196;-79
2022/11/05 02:23:39;;;;;;;7.60;4.20;;;;;;;-145.69;100.00;52571.13;5130813;27;20203;-80
2022/11/05 02:26:42;;;;;;;9.10;4.87;;;;;;;-145.69;100.00;52563.22;5134622;27;20193;-79
2022/11/05 02:29:48;;;;;;;9.07;4.67;;;;;;;-145.69;100.00;52551.31;5134017;27;20232;-79
2022/11/05 02:32:28;;;;;;;12.20;5.50;;;;;;;-145.69;100.00;52559.25;5113665;28;20208;-79
2022/11/05 02:35:02;;;;;;;9.70;5.10;;;;;;;-145.69;100.00;52577.06;5113814;28;20225;-79
2022/11/05 02:37:38;;;;;;;9.10;4.70;;;;;;;-145.69;100.00;52559.25;5113895;28;20197;-79
2022/11/05 02:40:13;;;;;;;8.50;4.77;;;;;;;-145.69;100.00;52547.38;5113833;28;20196;-80
2022/11/05 02:42:45;;;;;;;8.47;5.10;;;;;;;-145.69;100.00;52555.28;5113412;28;20678;-80
2022/11/05 02:45:22;;;;;;;9.13;4.50;;;;;;;-145.69;100.00;52575.09;5114284;28;20220;-79
2022/11/05 02:47:57;;;;;;;9.33;5.13;;;;;;;-145.69;100.00;52577.06;5113754;28;20193;-79
2022/11/05 02:50:29;;;;;;;8.77;4.80;;;;;;;-145.69;100.00;52551.31;5113480;28;20714;-79
2022/11/05 02:53:00;;;;;;;8.07;4.90;;;;;;;-145.69;100.00;52543.41;5113886;28;20203;-79
2022/11/05 02:55:33;;;;;;;9.27;4.57;;;;;;;-145.69;100.00;52561.22;5129477;27;20201;-79
2022/11/05 02:58:02;;;;;;;10.13;4.90;;;;;;;-145.69;100.00;52539.44;5130803;27;20193;-78
2022/11/05 03:00:50;;;;;;;6.40;4.03;;;;;;;-145.69;100.00;52547.38;5134067;27;20193;-79
2022/11/05 03:03:25;;;;;;;7.60;4.73;;;;;;;-145.69;100.00;52547.38;5127733;27;20193;-79
2022/11/05 03:06:14;;;;;;;8.90;4.30;;;;;;;-145.69;100.00;52555.28;5133875;27;20668;-79
2022/11/05 03:08:55;;;;;;;8.70;4.80;;;;;;;-145.69;100.00;52559.25;5124540;27;20208;-79
2022/11/05 03:11:24;;;;;;;9.27;4.67;;;;;;;-145.69;100.00;52569.16;5131975;27;20189;-79
2022/11/05 03:13:58;;;;;;;7.27;4.17;;;;;;;-145.69;100.00;52559.25;5113397;28;20204;-79
2022/11/05 03:16:32;;;;;;;8.93;4.80;;;;;;;-145.69;100.00;52586.97;5113506;28;20198;-79
2022/11/05 03:19:08;;;;;;;9.23;5.37;;;;;;;-145.69;100.00;52588.97;5113074;28;20206;-78
2022/11/05 03:21:44;;;;;;;15.30;5.37;;;;;;;-145.69;100.00;52559.25;5113565;28;20212;-80
2022/11/05 03:24:15;;;;;;;11.37;5.53;;;;;;;-145.69;100.00;52553.31;5113525;28;20257;-79
2022/11/05 03:26:49;;;;;;;9.60;5.13;;;;;;;-145.69;100.00;52533.50;5146610;27;20199;-79
2022/11/05 03:29:20;;;;;;;12.93;5.60;;;;;;;-145.69;100.00;52571.13;5143872;27;20712;-79
2022/11/05 03:31:49;;;;;;;12.07;5.50;;;;;;;-145.69;100.00;52563.22;5133624;27;20200;-79
2022/11/05 03:34:21;;;;;;;10.80;6.00;;;;;;;-145.69;100.00;52567.16;5133386;27;20232;-80
2022/11/05 03:36:53;;;;;;;13.70;5.30;;;;;;;-145.69;100.00;52583.00;5133542;27;20201;-80
2022/11/05 03:39:28;;;;;;;10.80;5.33;;;;;;;-145.69;100.00;52583.00;5134184;27;20216;-80
2022/11/05 03:41:57;;;;;;;10.13;5.30;;;;;;;-145.69;100.00;52577.06;5137307;27;20196;-78
2022/11/05 03:44:27;;;;;;;11.67;5.23;;;;;;;-145.69;100.00;52551.31;5137508;27;20200;-80
2022/11/05 03:46:58;;;;;;;9.43;4.73;;;;;;;-145.69;100.00;52561.22;5137614;27;20204;-79
2022/11/05 03:49:32;;;;;;;11.30;5.47;;;;;;;-145.69;100.00;52565.19;5137871;27;20229;-80
2022/11/05 03:52:04;;;;;;;11.13;5.30;;;;;;;-145.69;100.00;52586.97;5137413;27;20200;-80
2022/11/05 03:54:32;;;;;;;10.63;4.90;;;;;;;-145.69;100.00;52551.31;5137940;27;20615;-79
2022/11/05 03:57:04;;;;;;;10.23;5.27;;;;;;;-145.69;100.00;52569.16;5158319;27;20545;-79
2022/11/05 03:59:38;;;;;;;9.57;4.67;;;;;;;-145.69;100.00;52581.03;5158585;27;20200;-80
2022/11/05 04:02:04;;;;;;;9.17;4.40;;;;;;;-145.69;100.00;52563.22;5157983;27;20673;-79
2022/11/05 04:04:32;;;;;;;11.07;4.83;;;;;;;-145.69;100.00;52573.13;5158328;27;20204;-79
2022/11/05 04:15:10;;;;;;;7.47;3.97;;;;;;;-145.69;100.00;52527.56;5137349;27;20607;-78
2022/11/05 04:17:36;;;;;;;7.57;4.47;;;;;;;-145.69;100.00;52523.59;5137134;27;20278;-78
2022/11/05 04:25:33;;;;;;;8.93;4.87;;;;;;;-145.69;100.00;52543.41;5146366;27;20316;-78
2022/11/05 04:28:00;;;;;;;10.60;4.43;;;;;;;-145.69;100.00;52561.22;5157444;27;20200;-79
2022/11/05 04:30:26;;;;;;;7.80;4.50;;;;;;;-145.69;100.00;52557.28;5157553;27;20273;-79
2022/11/05 04:32:57;;;;;;;7.30;4.07;;;;;;;-145.69;100.00;52563.22;5157793;27;20598;-79
2022/11/05 04:35:26;;;;;;;8.57;5.53;;;;;;;-145.69;100.00;52567.16;5156499;27;20200;-78
2022/11/05 04:37:53;;;;;;;9.23;4.63;;;;;;;-145.69;100.00;52511.72;5156082;27;20531;-79
2022/11/05 04:40:19;;;;;;;7.73;4.57;;;;;;;-145.69;100.00;52575.09;5156137;27;20650;-79
2022/11/05 04:42:46;;;;;;;8.37;5.17;;;;;;;-145.69;100.00;52561.22;5156309;27;20208;-78
2022/11/05 04:45:12;;;;;;;10.43;5.23;;;;;;;-145.69;100.00;52585.00;5156340;27;20201;-79
2022/11/05 04:47:39;;;;;;;9.30;4.97;;;;;;;-145.69;100.00;52547.38;5156041;27;20229;-79
2022/11/05 04:50:06;;;;;;;8.67;4.80;;;;;;;-145.69;100.00;52543.41;5156142;27;20228;-79
2022/11/05 04:52:33;;;;;;;8.07;4.90;;;;;;;-145.69;100.00;52567.16;5140025;27;20202;-79
2022/11/05 04:55:01;;;;;;;9.90;5.23;;;;;;;-145.69;100.00;52571.13;5135327;27;20205;-78
2022/11/05 04:57:27;;;;;;;8.77;5.10;;;;;;;-145.69;100.00;52559.25;5134804;28;20651;-79
2022/11/05 04:59:54;;;;;;;14.70;4.90;;;;;;;-145.69;100.00;52559.25;5135214;27;20200;-79
2022/11/05 05:02:20;;;;;;;9.80;4.83;;;;;;;-145.69;100.00;52575.09;5135105;27;20696;-79
2022/11/05 05:04:47;;;;;;;9.47;5.60;;;;;;;-145.69;100.00;52575.09;5135068;27;20193;-79
2022/11/05 05:07:13;;;;;;;9.03;5.03;;;;;;;-145.69;100.00;52565.19;5136248;27;20204;-78
2022/11/05 05:09:41;;;;;;;9.30;5.63;;;;;;;-145.69;100.00;52533.50;5134880;27;20221;-79
2022/11/05 05:12:08;;;;;;;13.23;6.50;;;;;;;-145.69;100.00;52547.38;5135206;27;20192;-79
2022/11/05 05:14:35;;;;;;;10.13;5.40;;;;;;;-145.69;100.00;52563.22;5134575;28;20201;-79
2022/11/05 05:17:01;;;;;;;13.00;6.30;;;;;;;-145.69;100.00;52557.28;5134939;28;20201;-80
2022/11/05 05:19:28;;;;;;;11.03;5.43;;;;;;;-145.69;100.00;52571.13;5118625;28;20198;-80
2022/11/05 05:21:53;;;;;;;9.77;6.07;;;;;;;-145.69;100.00;52579.06;5114071;28;20206;-79
2022/11/05 05:24:23;;;;;;;11.33;6.50;;;;;;;-145.69;100.00;52575.09;5114192;28;20288;-79
2022/11/05 05:26:51;;;;;;;12.17;4.43;;;;;;;-145.69;100.00;52557.28;5114579;28;20217;-80
2022/11/05 05:29:18;;;;;;;8.63;5.37;;;;;;;-145.69;100.00;52563.22;5114340;28;20197;-80
2022/11/05 05:31:45;;;;;;;9.82;6.57;;;;;;;-145.69;100.00;52571.13;5112629;28;20427;-79
2022/11/05 05:34:13;;;;;;;9.30;5.40;;;;;;;-145.69;100.00;52535.47;5100652;27;1094326;-79
2022/11/05 05:36:40;;;;;;;6.83;4.73;;;;;;;-145.69;100.00;52561.22;5156335;27;20196;-79
2022/11/05 05:39:09;;;;;;;8.63;4.97;;;;;;;-145.69;100.00;52559.25;5156531;27;20192;-79
2022/11/05 05:41:36;;;;;;;9.03;5.30;;;;;;;-145.69;100.00;52563.22;5156569;27;20203;-79
2022/11/05 05:44:04;;;;;;;9.27;5.30;;;;;;;-145.69;100.00;52553.31;5156160;27;20654;-79
2022/11/05 05:46:31;;;;;;;8.30;5.20;;;;;;;-145.69;100.00;52553.31;5156166;27;20762;-79
2022/11/05 05:48:57;;;;;;;9.27;5.17;;;;;;;-145.69;100.00;52555.28;5155872;27;20207;-79
2022/11/05 05:51:24;;;;;;;7.23;4.57;;;;;;;-145.69;100.00;52571.13;5156022;27;20235;-79
2022/11/05 05:53:52;;;;;;;6.00;4.00;;;;;;;-145.69;100.00;52575.09;5156313;27;20207;-79
2022/11/05 05:56:19;;;;;;;8.47;4.90;;;;;;;-145.69;100.00;52571.13;5155948;27;20217;-79
2022/11/05 05:58:46;;;;;;;8.97;5.17;;;;;;;-145.69;100.00;52583.00;5155608;27;20208;-79
2022/11/05 06:01:16;;;;;;;8.03;4.70;;;;;;;-145.69;100.00;52563.22;5155392;27;20196;-78
2022/11/05 06:03:42;;;;;;;8.43;5.30;;;;;;;-145.69;100.00;52586.97;5134053;27;20201;-79
2022/11/05 06:06:11;;;;;;;8.53;4.20;;;;;;;-145.69;100.00;52594.91;5135048;27;20678;-79
2022/11/05 06:08:38;;;;;;;9.03;4.60;;;;;;;-145.69;100.00;52543.41;5134782;27;20201;-79
2022/11/05 06:11:05;;;;;;;9.20;4.57;;;;;;;-145.69;100.00;52555.28;5134961;27;20251;-78
2022/11/05 06:13:32;;;;;;;6.93;4.30;;;;;;;-145.69;100.00;52571.13;5134840;27;20204;-78
2022/11/05 06:16:04;;;;;;;7.63;4.60;;;;;;;-145.69;100.00;52590.94;5134848;27;20199;-78
2022/11/05 06:18:32;;;;;;;6.27;3.47;;;;;;;-145.69;100.00;52579.06;5153057;27;20202;-78
2022/11/05 06:21:01;;;;;;;8.10;3.80;;;;;;;-145.69;100.00;52541.44;5155795;27;20200;-79
2022/11/05 06:23:29;;;;;;;6.20;4.17;;;;;;;-145.69;100.00;52579.06;5155554;27;20207;-79
2022/11/05 06:25:59;;;;;;;9.80;3.73;;;;;;;-145.69;100.00;52594.91;5154972;27;20589;-78
2022/11/05 06:28:26;;;;;;;6.50;3.33;;;;;;;-145.69;100.00;52559.25;5155149;27;20222;-78
2022/11/05 06:30:52;;;;;;;6.60;3.73;;;;;;;-145.69;100.00;52571.13;5155174;27;20234;-77
2022/11/05 06:33:19;;;;;;;7.03;4.53;;;;;;;-145.69;100.00;52586.97;5154049;27;20227;-78
2022/11/05 06:35:46;;;;;;;5.43;3.83;;;;;;;-145.69;100.00;52573.13;5134574;27;20197;-78
2022/11/05 06:38:13;;;;;;;3.97;2.77;;;;;;;-145.69;100.00;52575.09;5134325;27;20208;-78
2022/11/05 06:40:40;;;;;;;4.13;2.40;;;;;;;-145.69;100.00;52571.13;5134423;27;20647;-78
2022/11/05 06:43:07;;;;;;;3.00;1.97;;;;;;;-145.69;100.00;52571.13;5134296;27;20207;-78
2022/11/05 06:45:34;;;;;;;3.33;2.17;;;;;;;-145.69;100.00;52557.28;5134180;27;20197;-78
2022/11/05 06:48:00;;;;;;;2.03;1.83;;;;;;;-145.69;100.00;52586.97;5134437;27;20205;-78
2022/11/05 06:50:28;;;;;;;2.77;1.90;;;;;;;-145.69;100.00;52565.19;5134126;27;20220;-79
2022/11/05 06:52:57;;;;;;;4.90;2.00;;;;;;;-145.69;100.00;52551.31;5134207;27;20197;-79
2022/11/05 06:55:24;;;;;;;2.47;1.90;;;;;;;-145.69;100.00;52590.94;5133970;27;20201;-79
2022/11/05 06:57:50;;;;;;;2.67;1.87;;;;;;;-145.69;100.00;52594.91;5133774;27;20205;-78
2022/11/05 07:00:18;;;;;;;2.07;1.73;;;;;;;-145.69;100.00;52586.97;5139041;27;20196;-78
2022/11/05 07:02:44;;;;;;;2.43;1.60;;;;;;;-145.69;100.00;52555.28;5154399;27;20196;-79
2022/11/05 07:05:11;;;;;;;9.77;6.57;;;;;;;-145.69;100.00;52604.81;5154606;27;20697;-79
2022/11/05 07:07:38;;;;;;;4.73;2.63;;;;;;;-145.69;100.00;52571.13;5154754;27;20195;-79
2022/11/05 07:10:08;;;;;;;5.07;2.43;;;;;;;-145.69;100.00;52559.25;5154650;27;20530;-79
2022/11/05 07:12:35;;;;;;;1.77;1.60;;;;;;;-145.69;100.00;52594.91;5154325;27;20199;-79
2022/11/05 07:15:01;;;;;;;2.40;1.70;;;;;;;-145.69;100.00;52585.00;5154500;27;20554;-78
2022/11/05 07:17:28;;;;;;;2.30;1.77;;;;;;;-145.69;100.00;52559.25;5147100;27;20199;-79
2022/11/05 07:19:54;;;;;;;2.67;2.10;;;;;;;-145.69;100.00;52537.47;5154722;27;20219;-79
2022/11/05 07:22:21;;;;;;;3.07;1.67;;;;;;;-145.69;100.00;52583.00;5153163;27;20219;-78
2022/11/05 07:24:48;;;;;;;2.13;1.73;;;;;;;-145.69;100.00;52563.22;5133717;27;20667;-77
2022/11/05 07:27:16;;;;;;;4.07;2.70;;;;;;;-145.69;100.00;52559.25;5133419;27;20250;-79
2022/11/05 07:29:43;;;;;;;5.93;2.23;;;;;;;-145.69;100.00;52583.00;5133788;27;20197;-79
2022/11/05 07:32:10;;;;;;;3.03;1.80;;;;;;;-145.69;100.00;52583.00;5133621;28;20706;-79
2022/11/05 07:34:36;;;;;;;3.87;2.20;;;;;;;-145.69;100.00;52583.00;5133455;28;20235;-79
2022/11/05 07:37:03;;;;;;;2.40;1.80;;;;;;;-145.69;100.00;52596.88;5133737;28;20205;-79
2022/11/05 07:39:29;;;;;;;1.80;1.70;;;;;;;-145.69;100.00;52555.28;5132922;28;20554;-79
2022/11/05 07:41:56;;;;;;;3.03;1.60;;;;;;;-145.69;100.00;52547.38;5133566;27;20559;-78
2022/11/05 07:44:24;;;;;;;1.63;1.50;;;;;;;-145.69;100.00;52573.13;5133869;27;20219;-78
2022/11/05 07:46:51;;;;;;;1.50;1.20;;;;;;;-145.69;100.00;52577.06;5133706;27;20398;-78
2022/11/05 07:49:18;;;;;;;2.30;1.60;;;;;;;-145.69;100.00;52581.03;5137711;27;20188;-79
2022/11/05 07:51:44;;;;;;;2.33;1.77;;;;;;;-145.69;100.00;52555.28;5153948;27;20223;-79
2022/11/05 07:54:11;;;;;;;1.97;1.60;;;;;;;-145.69;100.00;52553.31;5154176;27;20193;-79
2022/11/05 07:56:37;;;;;;;3.07;1.70;;;;;;;-145.69;100.00;52563.22;5150598;27;20216;-79
2022/11/05 07:59:04;;;;;;;4.07;2.10;;;;;;;-145.69;100.00;52590.94;5133656;28;20207;-79
2022/11/05 08:01:32;;;;;;;5.53;2.83;;;;;;;-145.69;100.00;52590.94;5133481;27;20197;-79
2022/11/05 08:03:58;;;;;;;9.00;4.63;;;;;;;-145.69;100.00;52598.84;5145113;27;20195;-79
2022/11/05 08:06:25;;;;;;;10.83;4.93;;;;;;;-145.69;100.00;52575.09;5154142;27;20210;-78
2022/11/05 08:08:51;;;;;;;3.10;2.10;;;;;;;-145.69;100.00;52575.09;5153850;27;20667;-78
2022/11/05 08:11:18;;;;;;;6.03;3.33;;;;;;;-145.69;100.00;52612.72;5154244;27;20238;-79
2022/11/05 08:13:45;;;;;;;2.10;1.57;;;;;;;-145.69;100.00;52594.91;5153610;27;20658;-78
2022/11/05 08:16:11;;;;;;;2.10;1.53;;;;;;;-145.69;100.00;52577.06;5154133;27;20223;-79
2022/11/05 08:18:39;;;;;;;1.40;1.30;;;;;;;-145.69;100.00;52590.94;5154152;27;20196;-79
2022/11/05 08:21:07;;;;;;;2.90;2.17;;;;;;;-145.69;100.00;52583.00;5153891;27;20673;-78
2022/11/05 08:23:34;;;;;;;2.60;2.10;;;;;;;-145.69;100.00;52571.13;5153789;27;20202;-79
2022/11/05 08:26:02;;;;;;;3.17;1.90;;;;;;;-145.69;100.00;52555.28;5154130;27;20558;-79
2022/11/05 08:28:29;;;;;;;4.90;3.07;;;;;;;-145.69;100.00;52561.22;5157660;27;20199;-79
2022/11/05 08:30:56;;;;;;;3.50;2.70;;;;;;;-145.69;100.00;52543.41;5140237;27;20244;-79
2022/11/05 08:33:24;;;;;;;3.80;2.70;;;;;;;-145.69;100.00;52583.00;5136688;27;20231;-79
2022/11/05 08:35:52;;;;;;;3.40;2.53;;;;;;;-145.69;100.00;52585.00;5136937;27;20636;-78
2022/11/05 08:38:19;;;;;;;2.87;2.30;;;;;;;-145.69;100.00;52555.28;5137007;27;20212;-79
2022/11/05 08:40:54;;;;;;;4.73;2.37;;;;;;;-145.69;100.00;52543.41;5136635;27;20197;-79
2022/11/05 08:43:21;;;;;;;2.90;2.40;;;;;;;-145.69;100.00;52549.34;5136861;27;20253;-79
2022/11/05 08:45:48;;;;;;;3.97;2.57;;;;;;;-145.69;100.00;52547.38;5136674;27;20750;-79
2022/11/05 08:48:17;;;;;;;2.50;2.07;;;;;;;-145.69;100.00;52571.13;5138138;27;20205;-80
2022/11/05 08:50:44;;;;;;;3.40;2.30;;;;;;;-145.69;100.00;52569.16;5137305;27;20224;-79
2022/11/05 08:53:13;;;;;;;3.83;2.30;;;;;;;-145.69;100.00;52563.22;5139073;27;20683;-80
2022/11/05 08:55:42;;;;;;;3.33;2.10;;;;;;;-145.69;100.00;52551.31;5141290;27;20199;-80
2022/11/05 08:58:15;;;;;;;5.90;2.63;;;;;;;-145.69;100.00;52598.84;5146166;27;20203;-82
2022/11/05 09:00:48;;;;;;;5.37;2.20;;;;;;;-145.69;100.00;52590.94;5159461;27;20200;-80
2022/11/05 09:03:20;;;;;;;4.97;2.53;;;;;;;-145.69;100.00;52559.25;5161240;27;20204;-80
2022/11/05 09:05:49;;;;;;;4.73;2.60;;;;;;;-145.69;100.00;52608.75;5160367;27;20227;-82
2022/11/05 09:08:20;;;;;;;5.20;3.20;;;;;;;-145.69;100.00;52555.28;5158543;27;20694;-81
2022/11/05 09:10:48;;;;;;;5.33;3.07;;;;;;;-145.69;100.00;52563.22;5157335;27;20220;-82
2022/11/05 09:13:16;;;;;;;4.30;2.50;;;;;;;-145.69;100.00;52583.00;5157405;27;20196;-83
2022/11/05 09:15:42;;;;;;;6.37;2.77;;;;;;;-145.69;100.00;52571.13;5157114;27;20654;-80
2022/11/05 09:18:12;;;;;;;3.20;2.20;;;;;;;-145.69;100.00;52590.94;5156505;27;20611;-81
2022/11/05 09:20:39;;;;;;;5.80;2.40;;;;;;;-145.69;100.00;52571.13;5156957;27;20196;-80
2022/11/05 09:23:06;;;;;;;5.73;2.37;;;;;;;-145.69;100.00;52547.38;5150355;27;20720;-81
2022/11/05 09:25:34;;;;;;;3.67;2.30;;;;;;;-145.69;100.00;52583.00;5116295;27;20205;-81
2022/11/05 09:28:12;;;;;;;2.90;2.20;;;;;;;-145.69;100.00;52577.06;5151845;27;20242;-81
2022/11/05 09:30:42;;;;;;;2.50;2.10;;;;;;;-145.69;100.00;52569.16;5158521;27;20198;-81
2022/11/05 09:33:09;;;;;;;4.40;1.73;;;;;;;-145.69;100.00;52553.31;5160587;27;20207;-81
2022/11/05 09:35:38;;;;;;;3.60;2.13;;;;;;;-145.69;100.00;52545.38;5158563;27;20553;-81
2022/11/05 09:38:04;;;;;;;4.13;2.20;;;;;;;-145.69;100.00;52563.22;5154867;27;20196;-81
2022/11/05 09:40:36;;;;;;;3.33;2.10;;;;;;;-145.69;100.00;52555.28;5149855;27;20196;-81
2022/11/05 09:43:04;;;;;;;3.67;2.10;;;;;;;-145.69;100.00;52551.31;5151757;27;20232;-81
2022/11/05 09:45:34;;;;;;;3.25;2.03;;;;;;;-145.69;100.00;52559.25;5150154;27;20441;-81
2022/11/05 09:48:07;;;;;;;6.53;2.00;;;;;;;-145.69;100.00;52531.53;5152119;27;20203;-81
2022/11/05 09:50:38;;;;;;;2.63;1.90;;;;;;;-145.69;100.00;52519.63;5152549;27;20205;-80
2022/11/05 09:53:05;;;;;;;2.10;1.73;;;;;;;-145.69;100.00;52592.91;5148842;27;20219;-81
2022/11/05 09:55:37;;;;;;;3.40;2.23;;;;;;;-145.69;100.00;52586.97;5145373;27;20205;-81
2022/11/05 09:58:10;;;;;;;4.00;2.47;;;;;;;-145.69;100.00;52539.44;5145045;27;20201;-81
2022/11/05 10:00:37;;;;;;;4.40;2.53;;;;;;;-145.69;100.00;52555.28;5145962;27;20201;-81
2022/11/05 10:03:07;;;;;;;4.63;2.77;;;;;;;-145.69;100.00;52571.13;5147358;27;20197;-80
2022/11/05 10:05:34;;;;;;;4.93;3.33;;;;;;;-145.69;100.00;52555.28;5146778;27;20670;-80
2022/11/05 10:08:05;;;;;;;3.90;2.60;;;;;;;-145.69;100.00;52541.44;5145456;27;20205;-80
2022/11/05 10:10:39;;;;;;;6.80;2.70;;;;;;;-145.69;100.00;52559.25;5138554;27;20197;-81
2022/11/05 10:13:15;;;;;;;4.50;2.77;;;;;;;-145.69;100.00;52547.38;5140646;27;20205;-82
2022/11/05 10:15:46;;;;;;;4.47;2.47;;;;;;;-145.69;100.00;52533.50;5141685;27;20204;-80
2022/11/05 10:18:18;;;;;;;3.13;2.40;;;;;;;-145.69;100.00;52547.38;5138669;27;20204;-80
2022/11/05 10:20:46;;;;;;;4.87;2.53;;;;;;;-145.69;100.00;52559.25;5138999;27;20201;-80
2022/11/05 10:23:14;;;;;;;6.03;3.37;;;;;;;-145.69;100.00;52543.41;5138031;27;20196;-81
2022/11/05 10:25:46;;;;;;;4.87;3.50;;;;;;;-145.69;100.00;52541.44;5141029;27;20204;-80
2022/11/05 10:28:20;;;;;;;5.07;3.10;;;;;;;-145.69;100.00;52537.47;5161684;27;20208;-81
2022/11/05 10:30:50;;;;;;;4.47;3.23;;;;;;;-145.69;100.00;52545.38;5163158;27;20196;-81
2022/11/05 10:33:22;;;;;;;6.57;4.00;;;;;;;-145.69;100.00;52551.31;5159731;27;20241;-81
2022/11/05 10:35:51;;;;;;;8.43;3.17;;;;;;;-145.69;100.00;52561.22;5159370;27;20207;-80
2022/11/05 10:38:17;;;;;;;4.97;3.47;;;;;;;-145.69;100.00;52533.50;5156277;27;20650;-81
2022/11/05 10:40:58;;;;;;;6.47;3.47;;;;;;;-145.69;100.00;52515.69;5157514;27;20199;-80
2022/11/05 10:43:31;;;;;;;4.73;3.17;;;;;;;-145.69;100.00;52585.00;5149975;27;20203;-81
2022/11/05 10:46:10;;;;;;;6.90;4.00;;;;;;;-145.69;100.00;52579.06;5137482;27;20556;-81
2022/11/05 10:48:50;;;;;;;5.33;3.50;;;;;;;-145.69;100.00;52549.34;5136039;27;20269;-81
2022/11/05 10:51:18;;;;;;;7.77;3.60;;;;;;;-145.69;100.00;52577.06;5135472;27;20229;-81
2022/11/05 10:53:52;;;;;;;4.93;3.27;;;;;;;-145.69;100.00;52559.25;5135369;27;20223;-80
2022/11/05 10:56:31;;;;;;;6.60;3.80;;;;;;;-145.69;100.00;52573.13;5135733;27;20566;-80
2022/11/05 10:59:00;;;;;;;4.73;3.40;;;;;;;-145.69;100.00;52535.47;5136223;27;20206;-80
2022/11/05 11:01:28;;;;;;;6.53;4.27;;;;;;;-145.69;100.00;52559.25;5135972;27;20204;-80
2022/11/05 11:04:16;;;;;;;7.03;4.03;;;;;;;-145.69;100.00;52579.06;5136999;27;20200;-79
2022/11/05 11:06:48;;;;;;;6.40;4.33;;;;;;;-145.69;100.00;52539.44;5136103;27;20659;-82
2022/11/05 11:09:21;;;;;;;7.13;4.70;;;;;;;-145.69;100.00;52565.19;5138566;27;20196;-81
2022/11/05 11:12:05;;;;;;;7.87;5.20;;;;;;;-145.69;100.00;52598.84;5155693;27;20224;-81
2022/11/05 11:14:33;;;;;;;10.47;5.20;;;;;;;-145.69;100.00;52545.38;5156021;27;20199;-81
2022/11/05 11:17:17;;;;;;;11.10;6.07;;;;;;;-145.69;100.00;52537.47;5156398;27;20203;-80
2022/11/05 11:19:44;;;;;;;8.87;6.30;;;;;;;-145.69;100.00;52551.31;5158198;27;20248;-80
2022/11/05 11:22:19;;;;;;;7.97;5.53;;;;;;;-145.69;100.00;52575.09;5139856;27;20200;-80
2022/11/05 11:24:48;;;;;;;10.90;6.07;;;;;;;-145.69;100.00;52547.38;5134686;27;20197;-80
2022/11/05 11:27:19;;;;;;;10.47;5.70;;;;;;;-145.69;100.00;52543.41;5150637;27;20228;-80
2022/11/05 11:29:50;;;;;;;7.35;5.15;;;;;;;-145.69;100.00;52541.44;5154932;27;20435;-80
2022/11/05 11:32:20;;;;;;;9.53;5.97;;;;;;;-145.69;100.00;52547.38;5147012;27;20224;-82
2022/11/05 11:34:51;;;;;;;11.83;5.60;;;;;;;-145.69;100.00;52588.97;5134407;27;20231;-80
2022/11/05 11:37:23;;;;;;;10.17;5.17;;;;;;;-145.69;100.00;52561.22;5135304;27;20201;-80
2022/11/05 11:39:52;;;;;;;7.97;5.20;;;;;;;-145.69;100.00;52567.16;5134294;27;20536;-80
2022/11/05 11:42:26;;;;;;;7.87;5.80;;;;;;;-145.69;100.00;52557.28;5134004;27;20215;-80
2022/11/05 11:44:53;;;;;;;9.33;5.97;;;;;;;-145.69;100.00;52529.53;5133812;27;20201;-80
2022/11/05 11:47:21;;;;;;;10.03;5.80;;;;;;;-145.69;100.00;52549.34;5133800;27;20665;-80
2022/11/05 11:49:51;;;;;;;11.27;6.67;;;;;;;-145.69;100.00;52571.13;5137848;27;20204;-80
2022/11/05 11:52:24;;;;;;;10.70;6.90;;;;;;;-145.69;100.00;52575.09;5135530;28;20235;-80
2022/11/05 11:54:51;;;;;;;10.53;6.53;;;;;;;-145.69;100.00;52590.94;5135728;27;20197;-80